sensor_id;sensor_type;location;lat;lon;timestamp;P1;durP1;ratioP1;P2;durP2;ratioP2
20229;SDS011;12195;55.790;37.572;2022-08-07T00:00:51;7.60;;;4.27;;
20229;SDS011;12195;55.790;37.572;2022-08-07T00:03:25;6.93;;;4.03;;
20229;SDS011;12195;55.790;37.572;2022-08-07T00:05:59;6.70;;;4.03;;
20229;SDS011;12195;55.790;37.572;2022-08-07T00:08:31;5.83;;;3.83;;
20229;SDS011;12195;55.790;37.572;2022-08-07T00:11:07;3.83;;;3.35;;
20229;SDS011;12195;55.790;37.572;2022-08-07T00:13:40;6.28;;;4.03;;
20229;SDS011;12195;55.790;37.572;2022-08-07T00:16:15;4.78;;;3.98;;
20229;SDS011;12195;55.790;37.572;2022-08-07T00:18:49;7.78;;;4.17;;
20229;SDS011;12195;55.790;37.572;2022-08-07T00:21:21;10.70;;;4.25;;
20229;SDS011;12195;55.790;37.572;2022-08-07T00:23:55;8.30;;;3.83;;
20229;SDS011;12195;55.790;37.572;2022-08-07T00:26:28;7.62;;;4.20;;
20229;SDS011;12195;55.790;37.572;2022-08-07T00:29:01;8.97;;;4.10;;
20229;SDS011;12195;55.790;37.572;2022-08-07T00:31:35;7.42;;;4.15;;
20229;SDS011;12195;55.790;37.572;2022-08-07T00:34:09;9.28;;;4.20;;
20229;SDS011;12195;55.790;37.572;2022-08-07T00:36:43;7.67;;;4.37;;
20229;SDS011;12195;55.790;37.572;2022-08-07T00:39:16;6.97;;;3.67;;
20229;SDS011;12195;55.790;37.572;2022-08-07T00:41:51;6.13;;;3.80;;
20229;SDS011;12195;55.790;37.572;2022-08-07T00:44:27;7.95;;;3.37;;
20229;SDS011;12195;55.790;37.572;2022-08-07T00:47:01;4.70;;;3.80;;
20229;SDS011;12195;55.790;37.572;2022-08-07T00:49:37;8.10;;;3.65;;
20229;SDS011;12195;55.790;37.572;2022-08-07T00:52:11;5.08;;;3.80;;
20229;SDS011;12195;55.790;37.572;2022-08-07T00:54:44;10.90;;;4.33;;
20229;SDS011;12195;55.790;37.572;2022-08-07T00:57:19;4.17;;;3.42;;
20229;SDS011;12195;55.790;37.572;2022-08-07T00:59:54;11.48;;;3.87;;
20229;SDS011;12195;55.790;37.572;2022-08-07T01:02:26;5.92;;;3.70;;
20229;SDS011;12195;55.790;37.572;2022-08-07T01:04:58;5.47;;;3.50;;
20229;SDS011;12195;55.790;37.572;2022-08-07T01:07:31;5.45;;;3.47;;
20229;SDS011;12195;55.790;37.572;2022-08-07T01:10:04;9.68;;;3.80;;
20229;SDS011;12195;55.790;37.572;2022-08-07T01:12:40;4.85;;;3.55;;
20229;SDS011;12195;55.790;37.572;2022-08-07T01:15:15;7.22;;;3.47;;
20229;SDS011;12195;55.790;37.572;2022-08-07T01:17:47;5.97;;;3.27;;
20229;SDS011;12195;55.790;37.572;2022-08-07T01:20:21;8.73;;;3.50;;
20229;SDS011;12195;55.790;37.572;2022-08-07T01:22:56;7.45;;;3.60;;
20229;SDS011;12195;55.790;37.572;2022-08-07T01:25:32;9.18;;;3.58;;
20229;SDS011;12195;55.790;37.572;2022-08-07T01:30:42;5.60;;;3.40;;
20229;SDS011;12195;55.790;37.572;2022-08-07T01:33:16;5.80;;;4.00;;
20229;SDS011;12195;55.790;37.572;2022-08-07T01:35:51;11.85;;;4.00;;
20229;SDS011;12195;55.790;37.572;2022-08-07T01:38:27;8.55;;;4.15;;
20229;SDS011;12195;55.790;37.572;2022-08-07T01:41:02;7.75;;;4.00;;
20229;SDS011;12195;55.790;37.572;2022-08-07T01:43:39;6.25;;;4.00;;
20229;SDS011;12195;55.790;37.572;2022-08-07T01:46:11;12.37;;;4.53;;
20229;SDS011;12195;55.790;37.572;2022-08-07T01:48:46;7.30;;;3.90;;
20229;SDS011;12195;55.790;37.572;2022-08-07T01:51:22;9.18;;;4.35;;
20229;SDS011;12195;55.790;37.572;2022-08-07T01:53:57;5.55;;;4.00;;
20229;SDS011;12195;55.790;37.572;2022-08-07T01:56:39;8.18;;;4.03;;
20229;SDS011;12195;55.790;37.572;2022-08-07T01:59:31;8.10;;;3.80;;
20229;SDS011;12195;55.790;37.572;2022-08-07T02:02:28;5.45;;;4.00;;
20229;SDS011;12195;55.790;37.572;2022-08-07T02:05:11;9.33;;;3.70;;
20229;SDS011;12195;55.790;37.572;2022-08-07T02:07:49;10.48;;;3.58;;
20229;SDS011;12195;55.790;37.572;2022-08-07T02:10:25;14.20;;;4.45;;
20229;SDS011;12195;55.790;37.572;2022-08-07T02:12:59;7.22;;;3.77;;
20229;SDS011;12195;55.790;37.572;2022-08-07T02:15:38;11.70;;;4.35;;
20229;SDS011;12195;55.790;37.572;2022-08-07T02:18:11;10.75;;;3.83;;
20229;SDS011;12195;55.790;37.572;2022-08-07T02:20:47;7.28;;;3.90;;
20229;SDS011;12195;55.790;37.572;2022-08-07T02:23:23;6.00;;;4.05;;
20229;SDS011;12195;55.790;37.572;2022-08-07T02:25:56;7.60;;;4.17;;
20229;SDS011;12195;55.790;37.572;2022-08-07T02:28:31;11.57;;;5.33;;
20229;SDS011;12195;55.790;37.572;2022-08-07T02:31:07;7.90;;;4.30;;
20229;SDS011;12195;55.790;37.572;2022-08-07T02:33:42;10.32;;;4.47;;
20229;SDS011;12195;55.790;37.572;2022-08-07T02:36:17;17.48;;;5.17;;
20229;SDS011;12195;55.790;37.572;2022-08-07T02:38:52;15.30;;;5.28;;
20229;SDS011;12195;55.790;37.572;2022-08-07T02:41:27;12.03;;;4.90;;
20229;SDS011;12195;55.790;37.572;2022-08-07T02:44:02;15.20;;;5.05;;
20229;SDS011;12195;55.790;37.572;2022-08-07T02:46:37;10.45;;;4.97;;
20229;SDS011;12195;55.790;37.572;2022-08-07T02:49:11;13.58;;;5.10;;
20229;SDS011;12195;55.790;37.572;2022-08-07T02:51:46;10.65;;;4.67;;
20229;SDS011;12195;55.790;37.572;2022-08-07T02:54:21;13.93;;;5.58;;
20229;SDS011;12195;55.790;37.572;2022-08-07T02:56:59;11.00;;;5.03;;
20229;SDS011;12195;55.790;37.572;2022-08-07T02:59:33;8.70;;;4.50;;
20229;SDS011;12195;55.790;37.572;2022-08-07T03:02:07;9.93;;;4.58;;
20229;SDS011;12195;55.790;37.572;2022-08-07T03:04:40;11.05;;;4.33;;
20229;SDS011;12195;55.790;37.572;2022-08-07T03:07:15;10.85;;;4.75;;
20229;SDS011;12195;55.790;37.572;2022-08-07T03:09:51;10.05;;;4.72;;
20229;SDS011;12195;55.790;37.572;2022-08-07T03:12:24;8.55;;;4.72;;
20229;SDS011;12195;55.790;37.572;2022-08-07T03:15:00;9.78;;;4.97;;
20229;SDS011;12195;55.790;37.572;2022-08-07T03:17:35;15.83;;;4.85;;
20229;SDS011;12195;55.790;37.572;2022-08-07T03:20:10;14.23;;;4.70;;
20229;SDS011;12195;55.790;37.572;2022-08-07T03:22:42;10.10;;;4.75;;
20229;SDS011;12195;55.790;37.572;2022-08-07T03:25:18;7.70;;;4.75;;
20229;SDS011;12195;55.790;37.572;2022-08-07T03:27:54;8.10;;;4.72;;
20229;SDS011;12195;55.790;37.572;2022-08-07T03:30:31;13.83;;;5.80;;
20229;SDS011;12195;55.790;37.572;2022-08-07T03:33:05;7.97;;;4.80;;
20229;SDS011;12195;55.790;37.572;2022-08-07T03:35:39;10.05;;;4.92;;
20229;SDS011;12195;55.790;37.572;2022-08-07T03:38:14;10.55;;;5.80;;
20229;SDS011;12195;55.790;37.572;2022-08-07T03:40:49;9.38;;;4.47;;
20229;SDS011;12195;55.790;37.572;2022-08-07T03:43:24;7.90;;;4.83;;
20229;SDS011;12195;55.790;37.572;2022-08-07T03:45:59;11.68;;;4.30;;
20229;SDS011;12195;55.790;37.572;2022-08-07T03:48:34;5.83;;;3.92;;
20229;SDS011;12195;55.790;37.572;2022-08-07T03:51:09;8.55;;;3.95;;
20229;SDS011;12195;55.790;37.572;2022-08-07T03:53:43;8.10;;;4.85;;
20229;SDS011;12195;55.790;37.572;2022-08-07T03:58:51;7.60;;;4.40;;
20229;SDS011;12195;55.790;37.572;2022-08-07T04:01:25;9.23;;;4.55;;
20229;SDS011;12195;55.790;37.572;2022-08-07T04:04:01;5.67;;;4.20;;
20229;SDS011;12195;55.790;37.572;2022-08-07T04:06:36;14.53;;;4.15;;
20229;SDS011;12195;55.790;37.572;2022-08-07T04:09:15;7.45;;;3.50;;
20229;SDS011;12195;55.790;37.572;2022-08-07T04:11:49;12.45;;;4.12;;
20229;SDS011;12195;55.790;37.572;2022-08-07T04:14:26;7.83;;;3.80;;
20229;SDS011;12195;55.790;37.572;2022-08-07T04:17:00;11.85;;;3.62;;
20229;SDS011;12195;55.790;37.572;2022-08-07T04:19:35;10.43;;;4.15;;
20229;SDS011;12195;55.790;37.572;2022-08-07T04:22:10;10.03;;;3.80;;
20229;SDS011;12195;55.790;37.572;2022-08-07T04:24:46;7.50;;;3.52;;
20229;SDS011;12195;55.790;37.572;2022-08-07T04:27:19;8.28;;;4.08;;
20229;SDS011;12195;55.790;37.572;2022-08-07T04:29:53;7.40;;;3.40;;
20229;SDS011;12195;55.790;37.572;2022-08-07T04:32:29;8.35;;;3.30;;
20229;SDS011;12195;55.790;37.572;2022-08-07T04:35:05;8.95;;;3.08;;
20229;SDS011;12195;55.790;37.572;2022-08-07T04:37:40;9.20;;;3.60;;
20229;SDS011;12195;55.790;37.572;2022-08-07T04:40:14;10.85;;;3.77;;
20229;SDS011;12195;55.790;37.572;2022-08-07T04:42:48;7.45;;;3.30;;
20229;SDS011;12195;55.790;37.572;2022-08-07T04:45:21;9.20;;;3.17;;
20229;SDS011;12195;55.790;37.572;2022-08-07T04:48:03;7.05;;;3.20;;
20229;SDS011;12195;55.790;37.572;2022-08-07T04:50:47;8.30;;;3.25;;
20229;SDS011;12195;55.790;37.572;2022-08-07T04:54:04;6.85;;;3.30;;
20229;SDS011;12195;55.790;37.572;2022-08-07T04:59:01;10.63;;;3.50;;
20229;SDS011;12195;55.790;37.572;2022-08-07T05:01:38;6.80;;;2.98;;
20229;SDS011;12195;55.790;37.572;2022-08-07T05:04:21;8.98;;;3.58;;
20229;SDS011;12195;55.790;37.572;2022-08-07T05:07:10;9.45;;;3.90;;
20229;SDS011;12195;55.790;37.572;2022-08-07T05:09:59;9.70;;;3.67;;
20229;SDS011;12195;55.790;37.572;2022-08-07T05:12:57;8.13;;;3.35;;
20229;SDS011;12195;55.790;37.572;2022-08-07T05:15:29;6.30;;;3.42;;
20229;SDS011;12195;55.790;37.572;2022-08-07T05:18:07;7.58;;;3.65;;
20229;SDS011;12195;55.790;37.572;2022-08-07T05:20:44;9.85;;;3.30;;
20229;SDS011;12195;55.790;37.572;2022-08-07T05:23:24;11.40;;;3.72;;
20229;SDS011;12195;55.790;37.572;2022-08-07T05:26:00;8.83;;;3.33;;
20229;SDS011;12195;55.790;37.572;2022-08-07T05:28:37;13.45;;;3.27;;
20229;SDS011;12195;55.790;37.572;2022-08-07T05:31:13;7.12;;;3.67;;
20229;SDS011;12195;55.790;37.572;2022-08-07T05:33:50;7.28;;;3.00;;
20229;SDS011;12195;55.790;37.572;2022-08-07T05:36:25;10.28;;;3.80;;
20229;SDS011;12195;55.790;37.572;2022-08-07T05:39:02;12.00;;;3.45;;
20229;SDS011;12195;55.790;37.572;2022-08-07T05:41:38;8.48;;;2.77;;
20229;SDS011;12195;55.790;37.572;2022-08-07T05:44:14;12.03;;;3.92;;
20229;SDS011;12195;55.790;37.572;2022-08-07T05:46:52;6.72;;;3.30;;
20229;SDS011;12195;55.790;37.572;2022-08-07T05:49:26;6.87;;;3.10;;
20229;SDS011;12195;55.790;37.572;2022-08-07T05:52:01;7.78;;;2.83;;
20229;SDS011;12195;55.790;37.572;2022-08-07T05:54:34;13.35;;;3.60;;
20229;SDS011;12195;55.790;37.572;2022-08-07T05:57:08;7.20;;;3.50;;
20229;SDS011;12195;55.790;37.572;2022-08-07T05:59:41;10.18;;;3.00;;
20229;SDS011;12195;55.790;37.572;2022-08-07T06:02:18;10.38;;;3.27;;
20229;SDS011;12195;55.790;37.572;2022-08-07T06:04:54;7.90;;;3.08;;
20229;SDS011;12195;55.790;37.572;2022-08-07T06:07:29;11.60;;;4.15;;
20229;SDS011;12195;55.790;37.572;2022-08-07T06:10:05;8.75;;;3.50;;
20229;SDS011;12195;55.790;37.572;2022-08-07T06:12:41;4.67;;;3.22;;
20229;SDS011;12195;55.790;37.572;2022-08-07T06:15:15;11.15;;;3.22;;
20229;SDS011;12195;55.790;37.572;2022-08-07T06:17:50;16.73;;;4.33;;
20229;SDS011;12195;55.790;37.572;2022-08-07T06:20:25;9.93;;;4.12;;
20229;SDS011;12195;55.790;37.572;2022-08-07T06:23:00;9.40;;;3.67;;
20229;SDS011;12195;55.790;37.572;2022-08-07T06:25:43;8.88;;;3.77;;
20229;SDS011;12195;55.790;37.572;2022-08-07T06:28:13;9.10;;;3.25;;
20229;SDS011;12195;55.790;37.572;2022-08-07T06:30:47;6.67;;;3.30;;
20229;SDS011;12195;55.790;37.572;2022-08-07T06:33:23;13.88;;;3.75;;
20229;SDS011;12195;55.790;37.572;2022-08-07T06:35:56;6.90;;;3.20;;
20229;SDS011;12195;55.790;37.572;2022-08-07T06:38:29;9.98;;;3.58;;
20229;SDS011;12195;55.790;37.572;2022-08-07T06:41:06;10.88;;;3.40;;
20229;SDS011;12195;55.790;37.572;2022-08-07T06:43:43;6.78;;;3.30;;
20229;SDS011;12195;55.790;37.572;2022-08-07T06:46:22;13.95;;;4.60;;
20229;SDS011;12195;55.790;37.572;2022-08-07T06:48:56;7.15;;;3.60;;
20229;SDS011;12195;55.790;37.572;2022-08-07T06:51:30;7.40;;;4.05;;
20229;SDS011;12195;55.790;37.572;2022-08-07T06:54:08;11.60;;;3.70;;
20229;SDS011;12195;55.790;37.572;2022-08-07T06:56:45;9.83;;;3.70;;
20229;SDS011;12195;55.790;37.572;2022-08-07T06:59:31;12.98;;;3.58;;
20229;SDS011;12195;55.790;37.572;2022-08-07T07:02:08;11.73;;;3.77;;
20229;SDS011;12195;55.790;37.572;2022-08-07T07:04:46;11.10;;;4.12;;
20229;SDS011;12195;55.790;37.572;2022-08-07T07:07:21;9.20;;;4.05;;
20229;SDS011;12195;55.790;37.572;2022-08-07T07:09:55;9.88;;;4.05;;
20229;SDS011;12195;55.790;37.572;2022-08-07T07:12:41;8.88;;;3.55;;
20229;SDS011;12195;55.790;37.572;2022-08-07T07:18:18;9.18;;;3.62;;
20229;SDS011;12195;55.790;37.572;2022-08-07T07:20:56;11.53;;;3.37;;
20229;SDS011;12195;55.790;37.572;2022-08-07T07:23:32;9.33;;;3.33;;
20229;SDS011;12195;55.790;37.572;2022-08-07T07:26:08;14.60;;;3.58;;
20229;SDS011;12195;55.790;37.572;2022-08-07T07:28:54;11.60;;;3.70;;
20229;SDS011;12195;55.790;37.572;2022-08-07T07:31:34;10.50;;;3.90;;
20229;SDS011;12195;55.790;37.572;2022-08-07T07:34:13;13.80;;;3.85;;
20229;SDS011;12195;55.790;37.572;2022-08-07T07:36:50;9.25;;;3.85;;
20229;SDS011;12195;55.790;37.572;2022-08-07T07:39:25;7.42;;;3.40;;
20229;SDS011;12195;55.790;37.572;2022-08-07T07:42:01;9.55;;;4.25;;
20229;SDS011;12195;55.790;37.572;2022-08-07T07:44:37;10.80;;;3.55;;
20229;SDS011;12195;55.790;37.572;2022-08-07T07:47:12;13.05;;;3.90;;
20229;SDS011;12195;55.790;37.572;2022-08-07T07:49:47;7.17;;;3.60;;
20229;SDS011;12195;55.790;37.572;2022-08-07T07:52:23;6.50;;;3.12;;
20229;SDS011;12195;55.790;37.572;2022-08-07T07:54:57;10.68;;;3.60;;
20229;SDS011;12195;55.790;37.572;2022-08-07T08:00:05;9.80;;;3.52;;
20229;SDS011;12195;55.790;37.572;2022-08-07T08:02:41;10.38;;;3.47;;
20229;SDS011;12195;55.790;37.572;2022-08-07T08:05:17;11.05;;;3.58;;
20229;SDS011;12195;55.790;37.572;2022-08-07T08:07:53;12.88;;;4.40;;
20229;SDS011;12195;55.790;37.572;2022-08-07T08:10:27;14.30;;;4.00;;
20229;SDS011;12195;55.790;37.572;2022-08-07T08:13:02;16.42;;;4.75;;
20229;SDS011;12195;55.790;37.572;2022-08-07T08:15:39;8.93;;;4.05;;
20229;SDS011;12195;55.790;37.572;2022-08-07T08:18:13;7.20;;;3.55;;
20229;SDS011;12195;55.790;37.572;2022-08-07T08:20:48;7.15;;;3.52;;
20229;SDS011;12195;55.790;37.572;2022-08-07T08:23:23;11.20;;;4.22;;
20229;SDS011;12195;55.790;37.572;2022-08-07T08:26:15;8.23;;;3.47;;
20229;SDS011;12195;55.790;37.572;2022-08-07T08:29:06;6.67;;;3.40;;
20229;SDS011;12195;55.790;37.572;2022-08-07T08:31:41;6.53;;;3.60;;
20229;SDS011;12195;55.790;37.572;2022-08-07T08:34:15;10.38;;;3.77;;
20229;SDS011;12195;55.790;37.572;2022-08-07T08:36:50;16.07;;;4.20;;
20229;SDS011;12195;55.790;37.572;2022-08-07T08:39:26;12.13;;;5.92;;
20229;SDS011;12195;55.790;37.572;2022-08-07T08:42:10;11.48;;;4.33;;
20229;SDS011;12195;55.790;37.572;2022-08-07T08:44:57;11.57;;;3.92;;
20229;SDS011;12195;55.790;37.572;2022-08-07T08:50:53;8.55;;;4.20;;
20229;SDS011;12195;55.790;37.572;2022-08-07T08:53:36;15.83;;;4.30;;
20229;SDS011;12195;55.790;37.572;2022-08-07T08:56:27;8.28;;;3.70;;
20229;SDS011;12195;55.790;37.572;2022-08-07T09:05:12;7.80;;;2.50;;
20229;SDS011;12195;55.790;37.572;2022-08-07T09:07:56;6.55;;;2.95;;
20229;SDS011;12195;55.790;37.572;2022-08-07T09:22:27;5.20;;;2.65;;
20229;SDS011;12195;55.790;37.572;2022-08-07T09:25:16;5.45;;;2.37;;
20229;SDS011;12195;55.790;37.572;2022-08-07T09:28:03;10.58;;;2.10;;
20229;SDS011;12195;55.790;37.572;2022-08-07T09:30:55;7.30;;;2.33;;
20229;SDS011;12195;55.790;37.572;2022-08-07T09:33:46;4.00;;;1.92;;
20229;SDS011;12195;55.790;37.572;2022-08-07T09:36:42;7.28;;;2.17;;
20229;SDS011;12195;55.790;37.572;2022-08-07T09:39:26;7.08;;;2.75;;
20229;SDS011;12195;55.790;37.572;2022-08-07T09:53:48;9.88;;;3.33;;
20229;SDS011;12195;55.790;37.572;2022-08-07T09:56:37;4.78;;;2.80;;
20229;SDS011;12195;55.790;37.572;2022-08-07T10:07:53;8.88;;;3.33;;
20229;SDS011;12195;55.790;37.572;2022-08-07T10:25:15;5.45;;;2.17;;
20229;SDS011;12195;55.790;37.572;2022-08-07T10:30:26;8.50;;;2.70;;
20229;SDS011;12195;55.790;37.572;2022-08-07T10:42:06;5.65;;;2.05;;
20229;SDS011;12195;55.790;37.572;2022-08-07T10:47:44;5.60;;;2.45;;
20229;SDS011;12195;55.790;37.572;2022-08-07T10:50:32;6.62;;;2.58;;
20229;SDS011;12195;55.790;37.572;2022-08-07T10:59:47;7.35;;;2.50;;
20229;SDS011;12195;55.790;37.572;2022-08-07T11:05:27;8.48;;;2.08;;
20229;SDS011;12195;55.790;37.572;2022-08-07T11:08:25;5.35;;;2.70;;
20229;SDS011;12195;55.790;37.572;2022-08-07T11:19:06;8.13;;;2.73;;
20229;SDS011;12195;55.790;37.572;2022-08-07T11:30:23;5.80;;;2.67;;
20229;SDS011;12195;55.790;37.572;2022-08-07T11:33:01;8.43;;;3.17;;
20229;SDS011;12195;55.790;37.572;2022-08-07T11:35:45;13.90;;;3.08;;
20229;SDS011;12195;55.790;37.572;2022-08-07T11:38:32;8.60;;;3.00;;
20229;SDS011;12195;55.790;37.572;2022-08-07T11:41:14;6.50;;;2.83;;
20229;SDS011;12195;55.790;37.572;2022-08-07T11:44:02;9.10;;;2.75;;
20229;SDS011;12195;55.790;37.572;2022-08-07T11:46:47;6.62;;;2.83;;
20229;SDS011;12195;55.790;37.572;2022-08-07T11:49:24;11.65;;;3.30;;
20229;SDS011;12195;55.790;37.572;2022-08-07T11:52:18;4.45;;;3.12;;
20229;SDS011;12195;55.790;37.572;2022-08-07T12:01:06;3.40;;;2.65;;
20229;SDS011;12195;55.790;37.572;2022-08-07T12:12:11;4.92;;;2.67;;
20229;SDS011;12195;55.790;37.572;2022-08-07T12:14:47;4.65;;;2.47;;
20229;SDS011;12195;55.790;37.572;2022-08-07T12:17:23;4.55;;;3.10;;
20229;SDS011;12195;55.790;37.572;2022-08-07T12:20:05;5.92;;;2.90;;
20229;SDS011;12195;55.790;37.572;2022-08-07T12:22:47;7.12;;;2.08;;
20229;SDS011;12195;55.790;37.572;2022-08-07T12:28:51;7.50;;;2.55;;
20229;SDS011;12195;55.790;37.572;2022-08-07T12:34:21;3.12;;;2.17;;
20229;SDS011;12195;55.790;37.572;2022-08-07T12:36:56;6.95;;;2.12;;
20229;SDS011;12195;55.790;37.572;2022-08-07T12:39:33;4.37;;;2.55;;
20229;SDS011;12195;55.790;37.572;2022-08-07T12:42:09;7.45;;;2.17;;
20229;SDS011;12195;55.790;37.572;2022-08-07T12:44:45;3.50;;;2.30;;
20229;SDS011;12195;55.790;37.572;2022-08-07T12:58:37;7.37;;;2.20;;
20229;SDS011;12195;55.790;37.572;2022-08-07T13:01:18;6.62;;;2.20;;
20229;SDS011;12195;55.790;37.572;2022-08-07T13:03:56;3.02;;;1.52;;
20229;SDS011;12195;55.790;37.572;2022-08-07T13:06:58;4.33;;;1.92;;
20229;SDS011;12195;55.790;37.572;2022-08-07T13:12:19;3.85;;;1.98;;
20229;SDS011;12195;55.790;37.572;2022-08-07T13:23:16;3.05;;;1.62;;
20229;SDS011;12195;55.790;37.572;2022-08-07T13:25:55;4.10;;;2.08;;
20229;SDS011;12195;55.790;37.572;2022-08-07T13:28:38;2.65;;;1.70;;
20229;SDS011;12195;55.790;37.572;2022-08-07T13:31:21;2.25;;;1.70;;
20229;SDS011;12195;55.790;37.572;2022-08-07T13:34:15;7.80;;;1.90;;
20229;SDS011;12195;55.790;37.572;2022-08-07T13:37:22;2.80;;;1.60;;
20229;SDS011;12195;55.790;37.572;2022-08-07T13:42:45;2.83;;;1.30;;
20229;SDS011;12195;55.790;37.572;2022-08-07T13:45:21;3.80;;;1.60;;
20229;SDS011;12195;55.790;37.572;2022-08-07T13:47:57;6.33;;;1.82;;
20229;SDS011;12195;55.790;37.572;2022-08-07T13:50:33;3.33;;;1.62;;
20229;SDS011;12195;55.790;37.572;2022-08-07T13:53:12;3.27;;;1.80;;
20229;SDS011;12195;55.790;37.572;2022-08-07T13:55:46;2.25;;;1.80;;
20229;SDS011;12195;55.790;37.572;2022-08-07T13:58:23;1.65;;;1.22;;
20229;SDS011;12195;55.790;37.572;2022-08-07T14:01:16;2.60;;;1.60;;
20229;SDS011;12195;55.790;37.572;2022-08-07T14:03:52;3.83;;;1.40;;
20229;SDS011;12195;55.790;37.572;2022-08-07T14:06:33;2.70;;;1.87;;
20229;SDS011;12195;55.790;37.572;2022-08-07T14:12:00;4.75;;;1.77;;
20229;SDS011;12195;55.790;37.572;2022-08-07T14:14:45;2.62;;;1.42;;
20229;SDS011;12195;55.790;37.572;2022-08-07T14:17:21;4.93;;;1.50;;
20229;SDS011;12195;55.790;37.572;2022-08-07T14:20:03;2.33;;;1.70;;
20229;SDS011;12195;55.790;37.572;2022-08-07T14:23:04;1.40;;;1.17;;
20229;SDS011;12195;55.790;37.572;2022-08-07T14:25:38;6.05;;;2.05;;
20229;SDS011;12195;55.790;37.572;2022-08-07T14:28:14;2.15;;;1.50;;
20229;SDS011;12195;55.790;37.572;2022-08-07T14:30:50;1.92;;;1.35;;
20229;SDS011;12195;55.790;37.572;2022-08-07T14:33:25;1.80;;;1.70;;
20229;SDS011;12195;55.790;37.572;2022-08-07T14:36:01;3.90;;;2.08;;
20229;SDS011;12195;55.790;37.572;2022-08-07T14:38:36;5.20;;;1.70;;
20229;SDS011;12195;55.790;37.572;2022-08-07T14:41:11;3.80;;;1.70;;
20229;SDS011;12195;55.790;37.572;2022-08-07T14:43:47;2.95;;;1.80;;
20229;SDS011;12195;55.790;37.572;2022-08-07T14:46:31;2.25;;;1.37;;
20229;SDS011;12195;55.790;37.572;2022-08-07T14:49:05;5.10;;;2.03;;
20229;SDS011;12195;55.790;37.572;2022-08-07T14:51:43;1.85;;;1.57;;
20229;SDS011;12195;55.790;37.572;2022-08-07T14:54:18;4.33;;;1.72;;
20229;SDS011;12195;55.790;37.572;2022-08-07T14:59:25;2.42;;;1.72;;
20229;SDS011;12195;55.790;37.572;2022-08-07T15:02:11;3.17;;;1.77;;
20229;SDS011;12195;55.790;37.572;2022-08-07T15:04:47;3.40;;;2.37;;
20229;SDS011;12195;55.790;37.572;2022-08-07T15:07:22;3.62;;;1.98;;
20229;SDS011;12195;55.790;37.572;2022-08-07T15:09:56;5.20;;;2.72;;
20229;SDS011;12195;55.790;37.572;2022-08-07T15:12:33;2.05;;;1.60;;
20229;SDS011;12195;55.790;37.572;2022-08-07T15:15:12;8.10;;;2.37;;
20229;SDS011;12195;55.790;37.572;2022-08-07T15:17:45;4.53;;;1.70;;
20229;SDS011;12195;55.790;37.572;2022-08-07T15:20:26;3.58;;;1.80;;
20229;SDS011;12195;55.790;37.572;2022-08-07T15:23:01;2.37;;;1.70;;
20229;SDS011;12195;55.790;37.572;2022-08-07T15:25:38;2.30;;;1.90;;
20229;SDS011;12195;55.790;37.572;2022-08-07T15:28:13;3.45;;;2.17;;
20229;SDS011;12195;55.790;37.572;2022-08-07T15:30:50;3.95;;;2.10;;
20229;SDS011;12195;55.790;37.572;2022-08-07T15:33:27;4.53;;;1.95;;
20229;SDS011;12195;55.790;37.572;2022-08-07T15:36:02;4.45;;;2.55;;
20229;SDS011;12195;55.790;37.572;2022-08-07T15:38:39;3.85;;;2.10;;
20229;SDS011;12195;55.790;37.572;2022-08-07T15:41:14;5.15;;;2.08;;
20229;SDS011;12195;55.790;37.572;2022-08-07T15:43:56;7.40;;;2.90;;
20229;SDS011;12195;55.790;37.572;2022-08-07T15:46:30;9.30;;;3.00;;
20229;SDS011;12195;55.790;37.572;2022-08-07T15:49:08;4.97;;;2.30;;
20229;SDS011;12195;55.790;37.572;2022-08-07T15:51:44;4.92;;;2.62;;
20229;SDS011;12195;55.790;37.572;2022-08-07T15:54:19;2.45;;;2.17;;
20229;SDS011;12195;55.790;37.572;2022-08-07T15:56:55;4.42;;;2.58;;
20229;SDS011;12195;55.790;37.572;2022-08-07T16:02:02;3.10;;;2.12;;
20229;SDS011;12195;55.790;37.572;2022-08-07T16:04:39;2.30;;;2.05;;
20229;SDS011;12195;55.790;37.572;2022-08-07T16:07:13;6.85;;;2.40;;
20229;SDS011;12195;55.790;37.572;2022-08-07T16:09:51;3.47;;;2.58;;
20229;SDS011;12195;55.790;37.572;2022-08-07T16:12:35;3.50;;;2.00;;
20229;SDS011;12195;55.790;37.572;2022-08-07T16:18:15;3.90;;;2.20;;
20229;SDS011;12195;55.790;37.572;2022-08-07T16:21:02;2.60;;;2.30;;
20229;SDS011;12195;55.790;37.572;2022-08-07T16:23:53;8.90;;;2.83;;
20229;SDS011;12195;55.790;37.572;2022-08-07T16:29:19;2.15;;;1.80;;
20229;SDS011;12195;55.790;37.572;2022-08-07T16:32:15;7.58;;;2.35;;
20229;SDS011;12195;55.790;37.572;2022-08-07T16:34:56;4.92;;;2.67;;
20229;SDS011;12195;55.790;37.572;2022-08-07T16:38:05;3.15;;;2.22;;
20229;SDS011;12195;55.790;37.572;2022-08-07T16:40:58;3.12;;;2.30;;
20229;SDS011;12195;55.790;37.572;2022-08-07T16:46:36;2.62;;;1.87;;
20229;SDS011;12195;55.790;37.572;2022-08-07T16:54:53;5.85;;;2.30;;
20229;SDS011;12195;55.790;37.572;2022-08-07T16:57:58;2.92;;;2.12;;
20229;SDS011;12195;55.790;37.572;2022-08-07T17:00:41;2.60;;;2.00;;
20229;SDS011;12195;55.790;37.572;2022-08-07T17:03:49;6.17;;;2.20;;
20229;SDS011;12195;55.790;37.572;2022-08-07T17:06:12;4.65;;;2.83;;
20229;SDS011;12195;55.790;37.572;2022-08-07T17:08:59;2.20;;;2.00;;
20229;SDS011;12195;55.790;37.572;2022-08-07T17:14:24;5.40;;;2.77;;
20229;SDS011;12195;55.790;37.572;2022-08-07T17:17:05;4.22;;;3.00;;
20229;SDS011;12195;55.790;37.572;2022-08-07T17:19:43;6.25;;;3.05;;
20229;SDS011;12195;55.790;37.572;2022-08-07T17:22:25;4.53;;;2.75;;
20229;SDS011;12195;55.790;37.572;2022-08-07T17:25:03;4.60;;;2.52;;
20229;SDS011;12195;55.790;37.572;2022-08-07T17:30:38;3.92;;;2.40;;
20229;SDS011;12195;55.790;37.572;2022-08-07T17:35:54;4.28;;;2.20;;
20229;SDS011;12195;55.790;37.572;2022-08-07T17:38:45;3.40;;;2.45;;
20229;SDS011;12195;55.790;37.572;2022-08-07T17:41:44;4.95;;;3.02;;
20229;SDS011;12195;55.790;37.572;2022-08-07T17:44:07;8.58;;;3.80;;
20229;SDS011;12195;55.790;37.572;2022-08-07T17:46:46;5.78;;;2.58;;
20229;SDS011;12195;55.790;37.572;2022-08-07T17:49:34;5.08;;;2.67;;
20229;SDS011;12195;55.790;37.572;2022-08-07T17:55:13;8.18;;;2.85;;
20229;SDS011;12195;55.790;37.572;2022-08-07T17:57:53;4.33;;;3.05;;
20229;SDS011;12195;55.790;37.572;2022-08-07T18:00:27;4.80;;;2.77;;
20229;SDS011;12195;55.790;37.572;2022-08-07T18:03:20;5.05;;;2.98;;
20229;SDS011;12195;55.790;37.572;2022-08-07T18:06:05;6.35;;;2.87;;
20229;SDS011;12195;55.790;37.572;2022-08-07T18:11:24;5.17;;;2.72;;
20229;SDS011;12195;55.790;37.572;2022-08-07T18:14:03;5.20;;;3.22;;
20229;SDS011;12195;55.790;37.572;2022-08-07T18:16:56;5.28;;;2.83;;
20229;SDS011;12195;55.790;37.572;2022-08-07T18:19:36;7.22;;;3.47;;
20229;SDS011;12195;55.790;37.572;2022-08-07T18:22:23;5.95;;;3.25;;
20229;SDS011;12195;55.790;37.572;2022-08-07T18:25:03;4.83;;;2.40;;
20229;SDS011;12195;55.790;37.572;2022-08-07T18:36:20;4.37;;;2.67;;
20229;SDS011;12195;55.790;37.572;2022-08-07T18:53:12;2.15;;;1.87;;
20229;SDS011;12195;55.790;37.572;2022-08-07T18:56:10;4.12;;;2.50;;
20229;SDS011;12195;55.790;37.572;2022-08-07T18:58:53;4.20;;;2.30;;
20229;SDS011;12195;55.790;37.572;2022-08-07T19:04:20;6.42;;;2.47;;
20229;SDS011;12195;55.790;37.572;2022-08-07T19:07:02;5.35;;;2.70;;
20229;SDS011;12195;55.790;37.572;2022-08-07T19:09:45;4.85;;;3.35;;
20229;SDS011;12195;55.790;37.572;2022-08-07T19:12:22;6.62;;;3.02;;
20229;SDS011;12195;55.790;37.572;2022-08-07T19:17:46;3.90;;;3.08;;